createdAt,value
2022-08-09T00:00:21.135Z,2.42
2022-08-09T00:02:49.917Z,2.15
2022-08-09T00:06:19.202Z,2.20
2022-08-09T00:08:11.337Z,2.55
2022-08-09T00:10:41.412Z,2.20
2022-08-09T00:13:16.706Z,3.10
2022-08-09T00:16:00.141Z,2.60
2022-08-09T00:18:34.935Z,1.98
2022-08-09T00:21:08.695Z,2.40
2022-08-09T00:23:54.875Z,2.20
2022-08-09T00:26:29.861Z,2.35
2022-08-09T00:29:12.458Z,2.05
2022-08-09T00:32:00.027Z,2.58
2022-08-09T00:34:28.509Z,2.50
2022-08-09T00:37:00.876Z,2.30
2022-08-09T00:40:10.247Z,2.58
2022-08-09T00:44:11.608Z,2.70
2022-08-09T00:45:15.958Z,2.75
2022-08-09T00:47:44.227Z,2.92
2022-08-09T00:50:14.335Z,2.53
2022-08-09T00:52:42.559Z,2.95
2022-08-09T00:55:32.583Z,2.80
2022-08-09T00:57:59.407Z,3.13
2022-08-09T01:00:28.236Z,2.83
2022-08-09T01:03:13.708Z,3.30
2022-08-09T01:06:03.924Z,3.03
2022-08-09T01:09:11.681Z,2.97
2022-08-09T01:11:59.003Z,3.03
2022-08-09T01:14:32.191Z,3.47
2022-08-09T01:17:10.876Z,3.10
2022-08-09T01:19:57.134Z,3.20
2022-08-09T01:24:03.676Z,3.30
2022-08-09T01:26:36.174Z,3.15
2022-08-09T01:29:06.397Z,4.00
2022-08-09T01:32:30.182Z,4.43
2022-08-09T01:34:26.654Z,3.85
2022-08-09T01:36:56.820Z,3.75
2022-08-09T01:39:27.391Z,3.47
2022-08-09T01:42:00.572Z,3.72
2022-08-09T01:44:31.527Z,3.65
2022-08-09T01:47:01.458Z,3.60
2022-08-09T01:49:38.818Z,3.63
2022-08-09T01:52:14.601Z,4.10
2022-08-09T01:54:48.597Z,4.07
2022-08-09T01:57:27.904Z,4.13
2022-08-09T02:00:08.980Z,3.97
2022-08-09T02:02:51.742Z,3.53
2022-08-09T02:05:35.534Z,3.25
2022-08-09T02:08:41.015Z,3.20
2022-08-09T02:11:03.705Z,3.00
2022-08-09T02:14:06.260Z,2.88
2022-08-09T02:16:53.243Z,3.05
2022-08-09T02:19:24.572Z,3.53
2022-08-09T02:22:14.060Z,3.65
2022-08-09T02:24:46.439Z,2.97
2022-08-09T02:27:27.490Z,3.08
2022-08-09T02:30:11.579Z,2.65
2022-08-09T02:32:43.966Z,3.00
2022-08-09T02:35:25.705Z,3.22
2022-08-09T02:38:11.483Z,3.30
2022-08-09T02:40:50.213Z,3.30
2022-08-09T02:43:21.076Z,3.25
2022-08-09T02:45:50.667Z,2.97
2022-08-09T02:48:30.759Z,3.05
2022-08-09T02:51:01.657Z,3.30
2022-08-09T02:53:37.739Z,3.25
2022-08-09T02:56:07.260Z,3.15
2022-08-09T02:58:37.858Z,4.05
2022-08-09T03:01:11.325Z,3.45
2022-08-09T03:04:16.526Z,3.30
2022-08-09T03:06:38.234Z,3.55
2022-08-09T03:09:09.041Z,3.92
2022-08-09T03:12:05.340Z,3.60
2022-08-09T03:14:26.681Z,3.70
2022-08-09T03:16:58.321Z,4.20
2022-08-09T03:19:59.278Z,4.00
2022-08-09T03:22:41.523Z,3.77
2022-08-09T03:25:06.285Z,3.45
2022-08-09T03:27:51.953Z,3.90
2022-08-09T03:30:29.197Z,4.10
2022-08-09T03:33:13.122Z,4.30
2022-08-09T03:36:15.795Z,3.60
2022-08-09T03:38:42.498Z,3.90
2022-08-09T03:41:14.731Z,3.90
2022-08-09T03:43:43.437Z,3.90
2022-08-09T03:46:30.783Z,3.97
2022-08-09T03:49:04.377Z,4.18
2022-08-09T03:51:55.222Z,4.60
2022-08-09T03:54:34.548Z,4.10
2022-08-09T03:57:17.916Z,4.20
2022-08-09T03:59:54.160Z,4.27
2022-08-09T04:02:27.996Z,4.30
2022-08-09T04:05:05.782Z,4.23
2022-08-09T04:07:52.502Z,4.70
2022-08-09T04:10:29.027Z,4.20
2022-08-09T04:13:04.223Z,4.00
2022-08-09T04:16:17.563Z,4.00
2022-08-09T04:18:21.436Z,4.20
2022-08-09T04:20:49.894Z,4.20
2022-08-09T04:23:23.418Z,4.10
2022-08-09T04:25:53.438Z,3.93
2022-08-09T04:28:33.058Z,3.40
2022-08-09T04:31:05.666Z,3.30
2022-08-09T04:33:47.578Z,3.40
2022-08-09T04:36:23.530Z,3.90
2022-08-09T04:38:51.636Z,3.60
2022-08-09T04:41:19.712Z,3.50
2022-08-09T04:44:06.241Z,3.87
2022-08-09T04:46:57.655Z,3.65
2022-08-09T04:49:40.840Z,3.90
2022-08-09T04:52:12.078Z,3.78
2022-08-09T04:54:48.174Z,4.03
2022-08-09T04:57:15.523Z,3.85
2022-08-09T04:59:50.322Z,4.30
2022-08-09T05:02:17.641Z,5.30
2022-08-09T05:04:47.244Z,11.95
2022-08-09T05:07:19.376Z,9.95
2022-08-09T05:09:49.826Z,4.95
2022-08-09T05:12:17.647Z,4.55
2022-08-09T05:14:45.904Z,4.22
2022-08-09T05:18:36.820Z,4.65
2022-08-09T05:20:00.397Z,4.35
2022-08-09T05:22:34.929Z,4.65
2022-08-09T05:25:07.211Z,4.40
2022-08-09T05:27:45.381Z,4.32
2022-08-09T05:30:17.684Z,4.47
2022-08-09T05:32:50.618Z,4.95
2022-08-09T05:35:18.287Z,4.55
2022-08-09T05:37:50.315Z,4.32
2022-08-09T05:40:19.746Z,4.95
2022-08-09T05:42:49.922Z,4.85
2022-08-09T05:45:18.084Z,4.47
2022-08-09T05:47:52.135Z,3.88
2022-08-09T05:50:44.163Z,4.18
2022-08-09T05:53:21.802Z,4.80
2022-08-09T05:55:59.332Z,4.35
2022-08-09T05:58:26.818Z,4.78
2022-08-09T06:00:54.369Z,5.40
2022-08-09T06:03:24.505Z,8.70
2022-08-09T06:06:04.680Z,9.45
2022-08-09T06:08:33.963Z,11.43
2022-08-09T06:11:01.464Z,11.65
2022-08-09T06:13:44.543Z,11.77
2022-08-09T06:16:13.316Z,12.57
2022-08-09T06:18:40.549Z,16.25
2022-08-09T06:21:08.242Z,19.35
2022-08-09T06:23:57.995Z,23.58
2022-08-09T06:26:28.267Z,24.38
2022-08-09T06:29:00.944Z,23.40
2022-08-09T06:31:40.390Z,25.42
2022-08-09T06:34:22.569Z,23.50
2022-08-09T06:36:57.472Z,22.25
2022-08-09T06:39:48.804Z,18.15
2022-08-09T06:42:16.888Z,16.92
2022-08-09T06:44:51.800Z,15.77
2022-08-09T06:47:22.262Z,13.85
2022-08-09T06:50:14.782Z,13.27
2022-08-09T06:52:47.295Z,13.35
2022-08-09T06:55:22.477Z,13.57
2022-08-09T06:58:02.814Z,13.50
2022-08-09T07:00:49.457Z,12.57
2022-08-09T07:03:28.113Z,13.55
2022-08-09T07:06:04.432Z,13.18
2022-08-09T07:08:33.760Z,11.38
2022-08-09T07:11:03.541Z,12.23
2022-08-09T07:13:31.306Z,10.85
2022-08-09T07:16:42.295Z,9.65
2022-08-09T07:19:00.199Z,9.40
2022-08-09T07:21:27.549Z,10.35
2022-08-09T07:23:58.820Z,10.00
2022-08-09T07:26:26.504Z,9.80
2022-08-09T07:29:08.822Z,7.85
2022-08-09T07:31:45.314Z,8.60
2022-08-09T07:34:19.568Z,7.50
2022-08-09T07:36:49.526Z,10.23
2022-08-09T07:39:20.622Z,6.50
2022-08-09T07:42:05.359Z,6.50
2022-08-09T07:44:51.133Z,6.75
2022-08-09T07:47:20.900Z,6.47
2022-08-09T07:50:05.270Z,6.68
2022-08-09T07:52:36.681Z,6.50
2022-08-09T07:55:09.547Z,5.70
2022-08-09T07:57:37.146Z,5.35
2022-08-09T08:00:20.853Z,5.57
2022-08-09T08:03:04.487Z,4.78
2022-08-09T08:05:54.324Z,4.80
2022-08-09T08:09:01.719Z,5.13
2022-08-09T08:12:10.305Z,4.32
2022-08-09T08:13:56.659Z,4.78
2022-08-09T08:16:29.976Z,4.88
2022-08-09T08:18:59.736Z,4.88
2022-08-09T08:21:31.201Z,4.57
2022-08-09T08:24:00.948Z,4.43
2022-08-09T08:26:54.962Z,4.40
2022-08-09T08:29:28.625Z,4.07
2022-08-09T08:32:07.234Z,4.20
2022-08-09T08:34:39.781Z,6.88
2022-08-09T08:37:15.536Z,4.65
2022-08-09T08:39:44.567Z,4.07
2022-08-09T08:42:12.320Z,4.30
2022-08-09T08:44:41.813Z,4.50
2022-08-09T08:47:12.889Z,3.33
2022-08-09T08:49:46.613Z,3.28
2022-08-09T08:52:48.591Z,3.20
2022-08-09T08:55:05.397Z,3.35
2022-08-09T08:57:34.709Z,1.60
2022-08-09T09:00:12.608Z,1.40
2022-08-09T09:02:49.975Z,1.80
2022-08-09T09:05:33.083Z,1.40
2022-08-09T09:08:30.710Z,1.67
2022-08-09T09:11:04.062Z,1.90
2022-08-09T09:13:54.836Z,2.03
2022-08-09T09:16:30.836Z,1.50
2022-08-09T09:19:37.732Z,1.73
2022-08-09T09:22:07.747Z,1.35
2022-08-09T09:24:49.264Z,2.08
2022-08-09T09:28:05.037Z,1.58
2022-08-09T09:30:26.159Z,1.40
2022-08-09T09:33:16.054Z,1.73
2022-08-09T09:36:01.537Z,1.38
2022-08-09T09:38:56.878Z,1.80
2022-08-09T09:41:26.391Z,1.40
2022-08-09T09:44:12.543Z,1.77
2022-08-09T09:46:51.350Z,1.55
2022-08-09T09:49:56.202Z,1.70
2022-08-09T09:52:33.756Z,1.55
2022-08-09T09:55:27.818Z,1.75
2022-08-09T09:58:16.630Z,2.08
2022-08-09T10:00:58.993Z,1.90
2022-08-09T10:03:57.817Z,2.05
2022-08-09T10:06:42.670Z,1.83
2022-08-09T10:09:22.342Z,2.03
2022-08-09T10:12:12.020Z,2.15
2022-08-09T10:14:47.726Z,2.10
2022-08-09T10:17:39.740Z,2.10
2022-08-09T10:20:32.942Z,2.08
2022-08-09T10:23:28.821Z,2.03
2022-08-09T10:26:06.585Z,2.00
2022-08-09T10:28:41.146Z,1.92
2022-08-09T10:34:10.506Z,1.85
2022-08-09T10:36:45.536Z,2.55
2022-08-09T10:39:16.141Z,2.95
2022-08-09T10:41:47.482Z,1.80
2022-08-09T10:44:18.522Z,2.13
2022-08-09T10:48:13.482Z,2.20
2022-08-09T10:49:57.548Z,2.40
2022-08-09T10:52:46.227Z,2.58
2022-08-09T10:55:24.831Z,2.13
2022-08-09T10:57:55.508Z,2.40
2022-08-09T11:00:30.157Z,2.55
2022-08-09T11:03:11.956Z,2.10
2022-08-09T11:06:18.684Z,2.22
2022-08-09T11:08:53.475Z,3.00
2022-08-09T11:11:23.412Z,2.80
2022-08-09T11:14:32.068Z,2.00
2022-08-09T11:16:59.997Z,2.95
2022-08-09T11:20:12.151Z,2.25
2022-08-09T11:22:44.762Z,2.80
2022-08-09T11:25:25.771Z,2.60
2022-08-09T11:28:09.255Z,1.88
2022-08-09T11:30:45.919Z,1.85
2022-08-09T11:33:19.386Z,1.95
2022-08-09T11:35:57.608Z,3.40
2022-08-09T11:38:34.902Z,3.20
2022-08-09T11:41:38.536Z,1.92
2022-08-09T11:44:09.453Z,2.25
2022-08-09T11:46:53.732Z,2.20
2022-08-09T11:50:55.104Z,2.05
2022-08-09T11:53:57.510Z,2.40
2022-08-09T11:56:02.908Z,2.67
2022-08-09T11:58:32.938Z,2.45
2022-08-09T12:01:08.724Z,2.50
2022-08-09T12:03:57.045Z,2.42
2022-08-09T12:06:32.428Z,2.28
2022-08-09T12:09:19.113Z,2.45
2022-08-09T12:12:28.533Z,1.77
2022-08-09T12:15:04.095Z,2.10
2022-08-09T12:17:57.622Z,2.00
2022-08-09T12:20:34.675Z,2.05
2022-08-09T12:23:04.707Z,2.00
2022-08-09T12:25:37.563Z,2.28
2022-08-09T12:28:59.207Z,3.00
2022-08-09T12:31:10.691Z,2.65
2022-08-09T12:33:59.442Z,2.60
2022-08-09T12:36:32.136Z,2.28
2022-08-09T12:39:01.793Z,2.28
2022-08-09T12:41:39.774Z,2.10
2022-08-09T12:44:10.325Z,2.05
2022-08-09T12:46:48.823Z,2.30
2022-08-09T12:49:18.517Z,1.90
2022-08-09T12:52:01.578Z,2.22
2022-08-09T12:55:00.595Z,2.00
2022-08-09T12:57:46.352Z,1.70
2022-08-09T13:00:25.318Z,5.32
2022-08-09T13:02:57.339Z,6.10
2022-08-09T13:05:52.373Z,5.82
2022-08-09T13:08:40.442Z,5.38
2022-08-09T13:11:23.052Z,6.80
2022-08-09T13:14:42.803Z,6.40
2022-08-09T13:16:50.618Z,6.25
2022-08-09T13:20:07.342Z,6.32
2022-08-09T13:22:38.385Z,6.00
2022-08-09T13:25:07.914Z,6.10
2022-08-09T13:27:54.560Z,7.07
2022-08-09T13:30:50.291Z,4.53
2022-08-09T13:33:23.536Z,21.08
2022-08-09T13:36:24.233Z,3.10
2022-08-09T13:38:57.609Z,6.43
2022-08-09T13:41:57.505Z,3.28
2022-08-09T13:44:17.030Z,4.38
2022-08-09T13:47:29.012Z,5.10
2022-08-09T13:49:39.831Z,5.85
2022-08-09T13:52:24.875Z,3.75
2022-08-09T13:54:59.369Z,2.92
2022-08-09T13:57:40.482Z,2.20
2022-08-09T14:00:17.209Z,2.90
2022-08-09T14:03:16.590Z,4.10
2022-08-09T14:05:58.174Z,3.22
2022-08-09T14:08:28.268Z,2.85
2022-08-09T14:10:56.440Z,2.55
2022-08-09T14:13:28.198Z,2.30
2022-08-09T14:16:16.884Z,2.38
2022-08-09T14:18:49.399Z,2.00
2022-08-09T14:21:21.074Z,2.15
2022-08-09T14:23:54.820Z,2.00
2022-08-09T14:26:32.670Z,1.80
2022-08-09T14:29:07.875Z,1.90
2022-08-09T14:31:54.715Z,1.70
2022-08-09T14:34:31.443Z,2.20
2022-08-09T14:37:07.567Z,4.22
2022-08-09T14:39:40.032Z,2.55
2022-08-09T14:42:31.002Z,3.50
2022-08-09T14:46:57.242Z,2.65
2022-08-09T14:47:58.055Z,2.17
2022-08-09T14:50:30.711Z,4.03
2022-08-09T14:52:59.599Z,3.60
2022-08-09T14:55:29.069Z,2.97
2022-08-09T14:58:02.957Z,3.63
2022-08-09T15:00:35.219Z,3.60
2022-08-09T15:03:06.823Z,3.28
2022-08-09T15:05:34.541Z,3.50
2022-08-09T15:08:05.640Z,4.50
2022-08-09T15:10:34.965Z,5.20
2022-08-09T15:13:04.921Z,5.00
2022-08-09T15:15:39.222Z,3.55
2022-08-09T15:18:12.401Z,2.60
2022-08-09T15:21:57.067Z,1.80
2022-08-09T15:24:03.094Z,1.98
2022-08-09T15:26:18.864Z,1.67
2022-08-09T15:28:55.955Z,1.92
2022-08-09T15:31:36.075Z,1.90
2022-08-09T15:34:17.574Z,2.78
2022-08-09T15:36:58.569Z,2.30
2022-08-09T15:39:34.862Z,2.90
2022-08-09T15:42:14.827Z,3.95
2022-08-09T15:44:42.528Z,4.75
2022-08-09T15:47:13.981Z,4.78
2022-08-09T15:50:00.610Z,4.32
2022-08-09T15:52:29.820Z,3.72
2022-08-09T15:54:57.755Z,3.90
2022-08-09T15:57:35.835Z,5.13
2022-08-09T16:00:21.885Z,6.65
2022-08-09T16:02:54.903Z,6.18
2022-08-09T16:05:47.328Z,6.78
2022-08-09T16:08:29.708Z,3.92
2022-08-09T16:11:02.499Z,3.20
2022-08-09T16:14:05.482Z,2.85
2022-08-09T16:16:19.378Z,2.13
2022-08-09T16:18:47.949Z,2.03
2022-08-09T16:21:25.054Z,1.73
2022-08-09T16:24:02.057Z,2.08
2022-08-09T16:26:36.284Z,1.80
2022-08-09T16:29:11.191Z,2.05
2022-08-09T16:32:18.669Z,2.00
2022-08-09T16:34:55.465Z,1.92
2022-08-09T16:37:18.906Z,1.98
2022-08-09T16:39:48.186Z,2.20
2022-08-09T16:42:33.574Z,1.90
2022-08-09T16:45:00.999Z,2.33
2022-08-09T16:48:43.171Z,2.00
2022-08-09T16:50:29.302Z,2.08
2022-08-09T16:53:00.742Z,1.85
2022-08-09T16:55:31.524Z,1.92
2022-08-09T16:58:16.932Z,1.67
2022-08-09T17:00:46.596Z,2.05
2022-08-09T17:03:21.522Z,2.20
2022-08-09T17:06:07.078Z,1.90
2022-08-09T17:08:58.840Z,1.63
2022-08-09T17:11:41.043Z,1.90
2022-08-09T17:14:26.238Z,1.90
2022-08-09T17:17:03.079Z,1.98
2022-08-09T17:19:46.416Z,2.20
2022-08-09T17:22:15.189Z,1.98
2022-08-09T17:24:47.461Z,1.75
2022-08-09T17:27:21.148Z,1.70
2022-08-09T17:29:48.502Z,2.00
2022-08-09T17:32:20.436Z,1.50
2022-08-09T17:35:03.874Z,1.95
2022-08-09T17:38:14.380Z,2.15
2022-08-09T17:40:29.838Z,1.92
2022-08-09T17:43:03.287Z,2.00
2022-08-09T17:46:03.011Z,2.00
2022-08-09T17:48:29.221Z,2.00
2022-08-09T17:51:00.930Z,1.80
2022-08-09T17:53:42.996Z,1.90
2022-08-09T17:56:11.094Z,2.05
2022-08-09T17:58:38.780Z,2.40
2022-08-09T18:01:15.356Z,2.05
2022-08-09T18:03:50.436Z,2.28
2022-08-09T18:06:30.932Z,2.05
2022-08-09T18:09:03.430Z,2.17
2022-08-09T18:11:47.130Z,2.10
2022-08-09T18:14:22.522Z,2.40
2022-08-09T18:16:50.340Z,2.17
2022-08-09T18:20:55.555Z,2.33
2022-08-09T18:22:13.275Z,2.05
2022-08-09T18:24:44.395Z,2.13
2022-08-09T18:27:49.068Z,2.00
2022-08-09T18:30:42.198Z,2.17
2022-08-09T18:32:54.078Z,2.40
2022-08-09T18:35:58.014Z,2.28
2022-08-09T18:38:11.782Z,1.75
2022-08-09T18:40:40.672Z,1.98
2022-08-09T18:43:08.946Z,1.90
2022-08-09T18:46:47.569Z,1.90
2022-08-09T18:48:25.561Z,2.45
2022-08-09T18:50:58.004Z,2.05
2022-08-09T18:53:26.148Z,2.00
2022-08-09T18:56:09.027Z,2.20
2022-08-09T18:58:36.514Z,2.03
2022-08-09T19:01:06.646Z,2.10
2022-08-09T19:03:54.615Z,2.00
2022-08-09T19:06:23.833Z,2.10
2022-08-09T19:09:03.253Z,2.35
2022-08-09T19:11:37.506Z,2.00
2022-08-09T19:14:07.091Z,2.10
2022-08-09T19:16:35.950Z,1.88
2022-08-09T19:19:21.388Z,2.25
2022-08-09T19:22:06.883Z,1.83
2022-08-09T19:25:07.659Z,2.08
2022-08-09T19:27:23.909Z,1.92
2022-08-09T19:30:22.730Z,2.08
2022-08-09T19:32:44.261Z,2.00
2022-08-09T19:35:11.598Z,2.20
2022-08-09T19:37:56.202Z,2.08
2022-08-09T19:40:34.087Z,1.92
2022-08-09T19:43:05.359Z,2.13
2022-08-09T19:45:39.050Z,2.30
2022-08-09T19:48:09.546Z,1.98
2022-08-09T19:50:50.477Z,2.08
2022-08-09T19:53:21.871Z,2.10
2022-08-09T19:56:03.205Z,2.28
2022-08-09T19:58:34.959Z,2.35
2022-08-09T20:01:03.229Z,2.58
2022-08-09T20:04:10.620Z,2.70
2022-08-09T20:06:22.291Z,2.40
2022-08-09T20:08:57.331Z,2.47
2022-08-09T20:11:26.855Z,2.15
2022-08-09T20:13:55.909Z,2.35
2022-08-09T20:16:34.221Z,2.30
2022-08-09T20:19:47.852Z,2.40
2022-08-09T20:21:57.382Z,2.22
2022-08-09T20:24:29.467Z,2.55
2022-08-09T20:27:07.890Z,2.45
2022-08-09T20:29:39.594Z,2.17
2022-08-09T20:32:30.227Z,2.33
2022-08-09T20:34:57.976Z,2.63
2022-08-09T20:37:37.890Z,2.63
2022-08-09T20:40:27.217Z,2.28
2022-08-09T20:43:19.012Z,2.28
2022-08-09T20:46:00.318Z,2.53
2022-08-09T20:48:38.229Z,2.20
2022-08-09T20:51:07.001Z,2.60
2022-08-09T20:53:38.547Z,2.28
2022-08-09T20:56:20.397Z,2.28
2022-08-09T20:58:54.560Z,2.13
2022-08-09T21:01:35.267Z,2.40
2022-08-09T21:05:52.071Z,1.95
2022-08-09T21:07:11.998Z,2.40
2022-08-09T21:09:45.751Z,2.33
2022-08-09T21:12:32.286Z,2.15
2022-08-09T21:15:13.074Z,2.10
2022-08-09T21:18:22.214Z,2.30
2022-08-09T21:20:30.023Z,1.85
2022-08-09T21:22:59.454Z,2.17
2022-08-09T21:25:56.197Z,2.35
2022-08-09T21:28:36.278Z,1.90
2022-08-09T21:31:17.499Z,2.30
2022-08-09T21:33:52.831Z,2.00
2022-08-09T21:36:25.962Z,2.30
2022-08-09T21:38:57.831Z,2.17
2022-08-09T21:42:04.007Z,2.10
2022-08-09T21:44:33.140Z,1.80
2022-08-09T21:47:07.370Z,2.38
2022-08-09T21:49:39.638Z,2.20
2022-08-09T21:52:15.100Z,2.10
2022-08-09T21:54:50.563Z,2.40
2022-08-09T21:57:37.660Z,2.50
2022-08-09T22:00:14.707Z,2.20
2022-08-09T22:02:43.332Z,2.70
2022-08-09T22:05:23.296Z,2.80
2022-08-09T22:07:54.442Z,2.50
2022-08-09T22:10:23.103Z,2.30
2022-08-09T22:12:52.134Z,2.28
2022-08-09T22:15:20.701Z,2.75
2022-08-09T22:17:50.563Z,2.33
2022-08-09T22:20:21.791Z,2.42
2022-08-09T22:22:55.195Z,2.47
2022-08-09T22:26:05.336Z,2.70
2022-08-09T22:28:10.677Z,2.55
2022-08-09T22:30:41.795Z,3.15
2022-08-09T22:33:17.202Z,3.10
2022-08-09T22:36:02.082Z,2.70
2022-08-09T22:38:30.941Z,2.58
2022-08-09T22:40:59.019Z,2.70
2022-08-09T22:44:03.348Z,2.72
2022-08-09T22:48:12.117Z,3.10
2022-08-09T22:49:09.831Z,3.30
2022-08-09T22:51:39.387Z,3.17
2022-08-09T22:54:11.130Z,3.22
2022-08-09T22:56:41.545Z,3.03
2022-08-09T22:59:55.426Z,3.15
2022-08-09T23:01:57.525Z,3.20
2022-08-09T23:04:25.430Z,3.53
2022-08-09T23:07:14.082Z,3.50
2022-08-09T23:09:43.657Z,3.50
2022-08-09T23:12:11.551Z,3.90
2022-08-09T23:14:42.614Z,4.68
2022-08-09T23:17:11.173Z,4.45
2022-08-09T23:20:00.668Z,5.82
2022-08-09T23:22:26.336Z,5.53
2022-08-09T23:24:53.675Z,5.70
2022-08-09T23:27:21.022Z,7.13
2022-08-09T23:29:48.283Z,7.45
2022-08-09T23:32:15.729Z,7.60
2022-08-09T23:34:43.107Z,7.93
2022-08-09T23:37:10.391Z,7.47
2022-08-09T23:39:37.898Z,7.28
2022-08-09T23:42:05.452Z,7.65
2022-08-09T23:44:32.925Z,8.02
2022-08-09T23:47:00.481Z,7.53
2022-08-09T23:49:27.814Z,7.78
2022-08-09T23:51:55.587Z,6.97
2022-08-09T23:54:26.490Z,7.95
2022-08-09T23:56:56.124Z,7.13
2022-08-09T23:59:46.308Z,6.82
